createdAt,value
2018-08-11T00:00:52.337Z,18.50
2018-08-11T00:03:21.027Z,18.41
2018-08-11T00:05:49.658Z,18.35
2018-08-11T00:08:18.507Z,18.28
2018-08-11T00:10:47.225Z,18.25
2018-08-11T00:13:15.894Z,18.25
2018-08-11T00:15:44.589Z,18.26
2018-08-11T00:18:13.266Z,18.29
2018-08-11T00:20:41.946Z,18.35
2018-08-11T00:23:10.643Z,18.38
2018-08-11T00:25:39.294Z,18.39
2018-08-11T00:28:07.923Z,18.40
2018-08-11T00:30:36.554Z,18.45
2018-08-11T00:33:05.222Z,18.28
2018-08-11T00:35:33.873Z,18.27
2018-08-11T00:38:02.469Z,18.25
2018-08-11T00:40:31.166Z,18.22
2018-08-11T00:42:59.814Z,18.24
2018-08-11T00:48:11.293Z,18.30
2018-08-11T00:50:54.379Z,18.25
2018-08-11T00:53:23.031Z,18.21
2018-08-11T00:55:51.670Z,18.14
2018-08-11T00:58:20.327Z,18.07
2018-08-11T01:00:48.995Z,18.00
2018-08-11T01:03:17.614Z,18.07
2018-08-11T01:05:46.273Z,18.02
2018-08-11T01:08:14.884Z,18.06
2018-08-11T01:10:43.575Z,18.02
2018-08-11T01:13:12.210Z,18.02
2018-08-11T01:15:40.900Z,18.01
2018-08-11T01:18:09.543Z,18.06
2018-08-11T01:20:38.211Z,17.99
2018-08-11T01:23:06.841Z,17.93
2018-08-11T01:25:35.570Z,17.90
2018-08-11T01:28:04.182Z,17.94
2018-08-11T01:30:32.810Z,17.90
2018-08-11T01:33:01.411Z,17.84
2018-08-11T01:35:30.094Z,17.81
2018-08-11T01:37:58.741Z,17.83
2018-08-11T01:40:27.390Z,17.83
2018-08-11T01:42:55.978Z,17.83
2018-08-11T01:45:24.587Z,17.90
2018-08-11T01:47:53.252Z,17.91
2018-08-11T01:50:21.963Z,17.88
2018-08-11T01:52:50.592Z,17.87
2018-08-11T01:55:19.529Z,17.86
2018-08-11T01:57:48.181Z,17.84
2018-08-11T02:00:17.357Z,17.81
2018-08-11T02:02:45.991Z,17.82
2018-08-11T02:05:14.605Z,17.78
2018-08-11T02:07:44.096Z,17.74
2018-08-11T02:10:16.729Z,17.77
2018-08-11T02:12:45.936Z,17.81
2018-08-11T02:15:14.991Z,17.74
2018-08-11T02:17:43.749Z,17.76
2018-08-11T02:20:14.955Z,17.70
2018-08-11T02:22:44.770Z,17.69
2018-08-11T02:25:13.395Z,17.66
2018-08-11T02:27:42.014Z,17.62
2018-08-11T02:30:14.048Z,17.56
2018-08-11T02:32:42.815Z,17.50
2018-08-11T02:35:12.344Z,17.46
2018-08-11T02:37:41.520Z,17.50
2018-08-11T02:40:11.839Z,17.47
2018-08-11T02:42:40.582Z,17.42
2018-08-11T02:45:10.801Z,17.38
2018-08-11T02:47:39.506Z,17.40
2018-08-11T02:50:09.327Z,17.42
2018-08-11T02:52:38.180Z,17.40
2018-08-11T02:55:06.912Z,17.44
2018-08-11T02:57:35.724Z,17.42
2018-08-11T03:00:05.565Z,17.48
2018-08-11T03:02:34.296Z,17.50
2018-08-11T03:05:02.858Z,17.48
2018-08-11T03:07:31.466Z,17.48
2018-08-11T03:10:00.086Z,17.50
2018-08-11T03:12:28.786Z,17.44
2018-08-11T03:14:57.430Z,17.37
2018-08-11T03:17:26.026Z,17.32
2018-08-11T03:19:54.614Z,17.29
2018-08-11T03:22:23.265Z,17.24
2018-08-11T03:24:51.845Z,17.19
2018-08-11T03:27:20.450Z,16.06
2018-08-11T03:29:49.026Z,17.17
2018-08-11T03:32:17.646Z,17.16
2018-08-11T03:34:46.311Z,17.10
2018-08-11T03:37:14.910Z,17.09
2018-08-11T03:39:43.493Z,17.04
2018-08-11T03:42:12.103Z,17.04
2018-08-11T03:44:40.694Z,17.04
2018-08-11T03:47:09.349Z,17.01
2018-08-11T03:49:37.940Z,16.97
2018-08-11T03:52:06.695Z,16.94
2018-08-11T03:54:35.321Z,16.98
2018-08-11T03:57:03.948Z,17.05
2018-08-11T03:59:32.596Z,17.08
2018-08-11T04:02:01.215Z,17.13
2018-08-11T04:04:29.826Z,17.25
2018-08-11T04:06:58.446Z,17.20
2018-08-11T04:09:27.102Z,17.22
2018-08-11T04:11:55.690Z,17.26
2018-08-11T04:14:24.300Z,17.28
2018-08-11T04:16:52.923Z,17.25
2018-08-11T04:19:21.550Z,17.28
2018-08-11T04:21:50.153Z,17.36
2018-08-11T04:24:18.839Z,17.46
2018-08-11T04:26:47.471Z,17.40
2018-08-11T04:29:16.149Z,17.38
2018-08-11T04:31:44.787Z,17.46
2018-08-11T04:34:13.381Z,17.70
2018-08-11T04:36:42.063Z,18.52
2018-08-11T04:39:10.673Z,19.76
2018-08-11T04:41:39.551Z,20.29
2018-08-11T04:44:08.283Z,20.76
2018-08-11T04:46:36.911Z,20.79
2018-08-11T04:49:05.571Z,20.62
2018-08-11T04:51:34.179Z,20.60
2018-08-11T04:54:02.794Z,20.43
2018-08-11T04:56:31.429Z,20.44
2018-08-11T04:59:00.051Z,20.23
2018-08-11T05:01:28.750Z,20.13
2018-08-11T05:03:57.362Z,20.51
2018-08-11T05:06:26.022Z,20.99
2018-08-11T05:08:54.708Z,21.35
2018-08-11T05:11:23.387Z,21.60
2018-08-11T05:13:52.034Z,22.14
2018-08-11T05:16:20.691Z,22.47
2018-08-11T05:18:49.343Z,22.46
2018-08-11T05:21:17.977Z,22.50
2018-08-11T05:23:46.627Z,22.73
2018-08-11T05:26:15.295Z,22.85
2018-08-11T05:28:43.922Z,22.85
2018-08-11T05:31:12.570Z,23.24
2018-08-11T05:33:41.233Z,23.11
2018-08-11T05:36:09.891Z,23.09
2018-08-11T05:38:38.500Z,23.68
2018-08-11T05:41:07.135Z,23.95
2018-08-11T05:43:35.773Z,24.26
2018-08-11T05:46:04.488Z,24.23
2018-08-11T05:48:33.081Z,24.18
2018-08-11T05:51:01.702Z,23.86
2018-08-11T05:53:30.329Z,23.96
2018-08-11T05:55:59.023Z,24.24
2018-08-11T05:58:27.729Z,24.10
2018-08-11T06:00:56.396Z,24.23
2018-08-11T06:03:25.119Z,24.22
2018-08-11T06:05:53.748Z,25.01
2018-08-11T06:08:22.403Z,25.28
2018-08-11T06:10:51.011Z,25.37
2018-08-11T06:13:19.679Z,25.51
2018-08-11T06:15:48.339Z,25.53
2018-08-11T06:18:17.067Z,25.40
2018-08-11T06:20:45.706Z,25.53
2018-08-11T06:23:14.330Z,25.88
2018-08-11T06:25:42.975Z,26.38
2018-08-11T06:28:11.621Z,26.54
2018-08-11T06:30:40.275Z,26.48
2018-08-11T06:33:08.957Z,26.68
2018-08-11T06:35:37.707Z,27.19
2018-08-11T06:38:06.368Z,27.38
2018-08-11T06:40:35.039Z,27.50
2018-08-11T06:43:03.711Z,27.71
2018-08-11T06:45:32.652Z,27.88
2018-08-11T06:48:01.474Z,28.02
2018-08-11T06:50:30.075Z,27.69
2018-08-11T06:52:58.713Z,27.85
2018-08-11T06:55:27.572Z,27.91
2018-08-11T06:57:56.507Z,27.84
2018-08-11T07:00:25.558Z,27.66
2018-08-11T07:02:54.560Z,27.80
2018-08-11T07:05:23.175Z,27.82
2018-08-11T07:07:52.430Z,27.79
2018-08-11T07:10:21.261Z,28.20
2018-08-11T07:12:50.730Z,28.60
2018-08-11T07:15:19.527Z,28.41
2018-08-11T07:17:48.350Z,28.41
2018-08-11T07:20:17.088Z,27.68
2018-08-11T07:22:46.717Z,28.07
2018-08-11T07:25:16.460Z,28.76
2018-08-11T07:27:45.775Z,28.92
2018-08-11T07:30:14.803Z,28.46
2018-08-11T07:32:43.737Z,29.00
2018-08-11T07:35:12.580Z,29.32
2018-08-11T07:37:41.268Z,29.36
2018-08-11T07:40:10.063Z,29.10
2018-08-11T07:42:38.732Z,29.33
2018-08-11T07:45:07.450Z,29.34
2018-08-11T07:47:36.099Z,29.74
2018-08-11T07:50:05.184Z,30.02
2018-08-11T07:52:34.109Z,29.73
2018-08-11T07:55:02.792Z,29.10
2018-08-11T07:57:31.493Z,29.54
2018-08-11T08:00:00.106Z,29.09
2018-08-11T08:02:28.747Z,29.23
2018-08-11T08:04:57.344Z,29.39
2018-08-11T08:07:25.968Z,29.73
2018-08-11T08:09:54.580Z,29.40
2018-08-11T08:12:23.177Z,29.42
2018-08-11T08:14:51.845Z,29.24
2018-08-11T08:17:20.480Z,30.41
2018-08-11T08:19:49.152Z,30.38
2018-08-11T08:22:17.747Z,29.77
2018-08-11T08:24:46.463Z,29.92
2018-08-11T08:27:15.170Z,30.58
2018-08-11T08:29:43.816Z,30.73
2018-08-11T08:32:12.441Z,30.15
2018-08-11T08:34:41.170Z,29.79
2018-08-11T08:37:09.780Z,29.68
2018-08-11T08:39:38.457Z,28.75
2018-08-11T08:42:07.046Z,29.51
2018-08-11T08:44:35.712Z,30.22
2018-08-11T08:47:04.364Z,30.40
2018-08-11T08:49:33.106Z,29.69
2018-08-11T08:52:01.722Z,29.90
2018-08-11T08:54:30.358Z,30.24
2018-08-11T08:56:59.236Z,29.46
2018-08-11T08:59:27.911Z,30.46
2018-08-11T09:01:56.537Z,30.55
2018-08-11T09:04:25.152Z,31.13
2018-08-11T09:06:53.785Z,31.08
2018-08-11T09:09:22.390Z,29.87
2018-08-11T09:11:50.988Z,30.41
2018-08-11T09:14:19.844Z,30.88
2018-08-11T09:16:48.509Z,30.85
2018-08-11T09:19:17.128Z,30.61
2018-08-11T09:21:45.730Z,30.62
2018-08-11T09:24:14.400Z,30.27
2018-08-11T09:26:43.036Z,30.18
2018-08-11T09:29:11.765Z,30.47
2018-08-11T09:31:40.466Z,31.50
2018-08-11T09:34:09.095Z,31.70
2018-08-11T09:36:37.723Z,32.00
2018-08-11T09:39:08.530Z,31.76
2018-08-11T09:41:37.174Z,31.73
2018-08-11T09:44:05.873Z,31.20
2018-08-11T09:46:34.521Z,31.53
2018-08-11T09:49:03.135Z,31.61
2018-08-11T09:51:31.827Z,32.16
2018-08-11T09:54:00.544Z,32.48
2018-08-11T09:56:29.146Z,32.45
2018-08-11T09:58:57.817Z,32.14
2018-08-11T10:01:31.454Z,31.59
2018-08-11T10:04:00.096Z,31.30
2018-08-11T10:06:28.753Z,31.49
2018-08-11T10:08:57.474Z,31.70
2018-08-11T10:11:26.178Z,32.83
2018-08-11T10:13:54.758Z,32.10
2018-08-11T10:16:23.387Z,31.92
2018-08-11T10:18:52.075Z,33.03
2018-08-11T10:21:20.691Z,33.62
2018-08-11T10:23:49.689Z,32.25
2018-08-11T10:26:18.295Z,31.73
2018-08-11T10:28:46.931Z,31.84
2018-08-11T10:31:15.575Z,32.13
2018-08-11T10:33:44.174Z,32.78
2018-08-11T10:36:12.794Z,31.45
2018-08-11T10:38:41.447Z,31.72
2018-08-11T10:41:10.044Z,32.03
2018-08-11T10:43:38.731Z,32.13
2018-08-11T10:46:07.328Z,32.43
2018-08-11T10:48:35.939Z,32.92
2018-08-11T10:51:04.559Z,32.14
2018-08-11T10:53:33.174Z,32.89
2018-08-11T10:56:01.748Z,33.49
2018-08-11T10:58:30.377Z,33.55
2018-08-11T11:00:59.030Z,32.62
2018-08-11T11:03:27.687Z,32.01
2018-08-11T11:05:56.314Z,31.39
2018-08-11T11:08:24.951Z,31.99
2018-08-11T11:10:53.584Z,32.94
2018-08-11T11:13:22.179Z,32.88
2018-08-11T11:15:50.814Z,33.32
2018-08-11T11:18:19.414Z,32.50
2018-08-11T11:20:48.054Z,32.64
2018-08-11T11:23:16.743Z,32.55
2018-08-11T11:25:45.380Z,33.14
2018-08-11T11:28:14.011Z,31.96
2018-08-11T11:30:42.637Z,31.95
2018-08-11T11:33:11.271Z,31.84
2018-08-11T11:35:39.958Z,32.69
2018-08-11T11:38:08.626Z,32.04
2018-08-11T11:40:37.245Z,32.65
2018-08-11T11:43:05.926Z,32.46
2018-08-11T11:45:34.559Z,32.83
2018-08-11T11:48:03.159Z,33.02
2018-08-11T11:50:31.731Z,33.26
2018-08-11T11:53:00.425Z,33.25
2018-08-11T11:55:29.062Z,32.34
2018-08-11T11:57:57.861Z,32.69
2018-08-11T12:00:26.536Z,32.38
2018-08-11T12:02:55.135Z,33.26
2018-08-11T12:05:23.782Z,32.75
2018-08-11T12:07:52.381Z,32.80
2018-08-11T12:10:21.051Z,32.66
2018-08-11T12:12:49.927Z,33.16
2018-08-11T12:15:18.539Z,31.97
2018-08-11T12:17:47.132Z,31.48
2018-08-11T12:20:15.781Z,31.50
2018-08-11T12:22:44.496Z,32.14
2018-08-11T12:25:13.158Z,31.45
2018-08-11T12:27:41.816Z,31.05
2018-08-11T12:30:11.232Z,30.85
2018-08-11T12:32:39.984Z,31.24
2018-08-11T12:35:08.643Z,30.95
2018-08-11T12:37:37.431Z,30.92
2018-08-11T12:40:06.268Z,30.67
2018-08-11T12:42:34.903Z,30.14
2018-08-11T12:45:03.541Z,30.35
2018-08-11T12:47:32.218Z,30.28
2018-08-11T12:50:00.899Z,30.72
2018-08-11T12:52:29.548Z,30.81
2018-08-11T12:54:58.159Z,30.62
2018-08-11T12:57:26.787Z,30.23
2018-08-11T12:59:55.405Z,30.16
2018-08-11T13:02:24.008Z,29.81
2018-08-11T13:04:52.662Z,29.25
2018-08-11T13:07:21.305Z,29.40
2018-08-11T13:09:49.971Z,29.51
2018-08-11T13:12:18.632Z,29.73
2018-08-11T13:14:47.256Z,29.74
2018-08-11T13:17:15.984Z,30.00
2018-08-11T13:19:44.627Z,29.88
2018-08-11T13:22:13.598Z,29.65
2018-08-11T13:24:42.211Z,29.32
2018-08-11T13:27:10.909Z,29.33
2018-08-11T13:29:39.535Z,29.45
2018-08-11T13:32:08.170Z,29.60
2018-08-11T13:34:36.795Z,29.23
2018-08-11T13:37:05.483Z,28.71
2018-08-11T13:39:34.121Z,28.54
2018-08-11T13:42:02.792Z,28.60
2018-08-11T13:44:31.430Z,28.65
2018-08-11T13:47:00.065Z,28.57
2018-08-11T13:49:28.740Z,28.56
2018-08-11T13:51:57.378Z,28.41
2018-08-11T13:54:26.097Z,28.22
2018-08-11T13:56:54.654Z,27.98
2018-08-11T13:59:23.285Z,28.16
2018-08-11T14:01:51.998Z,28.27
2018-08-11T14:04:20.647Z,28.50
2018-08-11T14:06:49.318Z,28.37
2018-08-11T14:09:17.958Z,28.38
2018-08-11T14:11:46.603Z,28.47
2018-08-11T14:14:15.262Z,28.54
2018-08-11T14:16:43.867Z,28.65
2018-08-11T14:19:12.467Z,28.55
2018-08-11T14:21:41.110Z,28.51
2018-08-11T14:24:09.760Z,28.63
2018-08-11T14:26:38.400Z,28.55
2018-08-11T14:29:07.087Z,28.30
2018-08-11T14:31:35.782Z,28.30
2018-08-11T14:34:04.439Z,28.38
2018-08-11T14:36:33.047Z,28.29
2018-08-11T14:39:01.706Z,28.16
2018-08-11T14:41:30.315Z,28.34
2018-08-11T14:43:58.971Z,28.35
2018-08-11T14:46:27.893Z,28.24
2018-08-11T14:48:56.512Z,28.15
2018-08-11T14:51:25.114Z,28.05
2018-08-11T14:53:53.759Z,28.09
2018-08-11T14:56:22.401Z,28.10
2018-08-11T14:58:51.004Z,27.81
2018-08-11T15:01:19.654Z,27.89
2018-08-11T15:03:48.356Z,27.90
2018-08-11T15:06:16.943Z,27.77
2018-08-11T15:08:45.646Z,27.72
2018-08-11T15:11:14.371Z,27.63
2018-08-11T15:13:43.010Z,27.57
2018-08-11T15:16:11.643Z,27.55
2018-08-11T15:18:40.314Z,27.53
2018-08-11T15:21:08.937Z,27.38
2018-08-11T15:23:37.590Z,27.34
2018-08-11T15:26:06.289Z,27.31
2018-08-11T15:28:34.991Z,27.40
2018-08-11T15:31:03.894Z,27.43
2018-08-11T15:33:32.819Z,27.45
2018-08-11T15:36:01.581Z,27.43
2018-08-11T15:38:30.314Z,27.41
2018-08-11T15:40:59.268Z,27.19
2018-08-11T15:43:27.883Z,27.05
2018-08-11T15:45:56.662Z,26.98
2018-08-11T15:48:25.363Z,27.00
2018-08-11T15:50:54.050Z,26.89
2018-08-11T15:53:22.776Z,26.90
2018-08-11T15:55:51.766Z,26.91
2018-08-11T15:58:20.462Z,26.97
2018-08-11T16:00:49.190Z,26.88
2018-08-11T16:03:17.839Z,26.77
2018-08-11T16:05:46.489Z,26.72
2018-08-11T16:08:15.355Z,26.75
2018-08-11T16:10:43.994Z,26.70
2018-08-11T16:13:12.679Z,26.63
2018-08-11T16:15:41.271Z,26.70
2018-08-11T16:18:09.931Z,26.68
2018-08-11T16:20:39.370Z,26.57
2018-08-11T16:23:08.007Z,26.45
2018-08-11T16:25:36.627Z,26.39
2018-08-11T16:28:05.639Z,26.37
2018-08-11T16:30:34.283Z,26.27
2018-08-11T16:33:02.866Z,26.18
2018-08-11T16:35:31.487Z,26.07
2018-08-11T16:38:00.064Z,25.99
2018-08-11T16:40:28.951Z,25.90
2018-08-11T16:42:57.514Z,25.77
2018-08-11T16:45:26.174Z,25.71
2018-08-11T16:47:54.779Z,25.65
2018-08-11T16:50:23.509Z,25.61
2018-08-11T16:52:52.166Z,25.55
2018-08-11T16:55:20.819Z,25.44
2018-08-11T16:57:49.503Z,25.39
2018-08-11T17:00:18.167Z,25.40
2018-08-11T17:02:46.811Z,25.40
2018-08-11T17:05:15.438Z,25.29
2018-08-11T17:07:44.063Z,25.27
2018-08-11T17:10:12.722Z,25.16
2018-08-11T17:12:41.379Z,25.04
2018-08-11T17:15:10.562Z,25.02
2018-08-11T17:17:39.194Z,24.95
2018-08-11T17:20:08.461Z,24.81
2018-08-11T17:22:37.037Z,24.70
2018-08-11T17:25:05.834Z,24.56
2018-08-11T17:27:34.914Z,24.43
2018-08-11T17:30:04.282Z,24.32
2018-08-11T17:32:33.146Z,24.22
2018-08-11T17:35:01.892Z,24.11
2018-08-11T17:37:30.525Z,24.02
2018-08-11T17:39:59.170Z,23.90
2018-08-11T17:42:27.743Z,23.80
2018-08-11T17:44:56.376Z,23.71
2018-08-11T17:47:24.973Z,23.52
2018-08-11T17:49:53.662Z,23.40
2018-08-11T17:52:22.293Z,23.25
2018-08-11T17:54:50.910Z,23.23
2018-08-11T17:57:19.510Z,23.25
2018-08-11T17:59:48.157Z,23.26
2018-08-11T18:02:16.755Z,23.27
2018-08-11T18:04:45.386Z,23.30
2018-08-11T18:07:14.011Z,23.32
2018-08-11T18:09:42.598Z,23.34
2018-08-11T18:12:11.327Z,23.32
2018-08-11T18:14:39.999Z,23.29
2018-08-11T18:17:08.771Z,23.23
2018-08-11T18:19:37.383Z,23.12
2018-08-11T18:22:06.148Z,23.08
2018-08-11T18:24:34.742Z,23.05
2018-08-11T18:27:03.369Z,22.96
2018-08-11T18:29:32.014Z,22.96
2018-08-11T18:32:00.623Z,22.98
2018-08-11T18:34:29.177Z,22.96
2018-08-11T18:36:57.798Z,22.94
2018-08-11T18:39:26.416Z,22.89
2018-08-11T18:41:54.983Z,22.90
2018-08-11T18:44:23.674Z,22.89
2018-08-11T18:46:52.262Z,22.84
2018-08-11T18:49:20.922Z,22.77
2018-08-11T18:51:49.870Z,22.71
2018-08-11T18:54:18.590Z,22.65
2018-08-11T18:56:47.233Z,22.63
2018-08-11T18:59:15.895Z,22.58
2018-08-11T19:01:44.569Z,22.52
2018-08-11T19:04:13.586Z,22.48
2018-08-11T19:06:42.282Z,22.43
2018-08-11T19:09:12.944Z,22.41
2018-08-11T19:11:41.882Z,22.37
2018-08-11T19:14:10.543Z,22.39
2018-08-11T19:16:39.186Z,22.37
2018-08-11T19:19:07.833Z,22.31
2018-08-11T19:21:36.498Z,22.27
2018-08-11T19:24:05.170Z,22.22
2018-08-11T19:26:33.838Z,22.18
2018-08-11T19:29:02.518Z,22.12
2018-08-11T19:31:31.155Z,22.12
2018-08-11T19:33:59.773Z,22.11
2018-08-11T19:36:28.453Z,22.07
2018-08-11T19:38:57.079Z,21.98
2018-08-11T19:41:25.723Z,21.91
2018-08-11T19:43:54.418Z,21.82
2018-08-11T19:46:23.080Z,21.76
2018-08-11T19:48:51.659Z,21.70
2018-08-11T19:51:20.277Z,21.65
2018-08-11T19:53:48.858Z,21.63
2018-08-11T19:56:17.467Z,21.62
2018-08-11T19:58:46.127Z,21.59
2018-08-11T20:01:15.422Z,21.52
2018-08-11T20:03:44.118Z,21.47
2018-08-11T20:06:12.731Z,21.40
2018-08-11T20:08:42.161Z,21.35
2018-08-11T20:11:10.828Z,21.42
2018-08-11T20:13:39.521Z,21.34
2018-08-11T20:16:08.162Z,21.19
2018-08-11T20:18:36.754Z,21.12
2018-08-11T20:21:05.401Z,21.07
2018-08-11T20:23:34.225Z,21.09
2018-08-11T20:26:02.933Z,21.06
2018-08-11T20:28:31.583Z,21.03
2018-08-11T20:31:00.202Z,21.07
2018-08-11T20:33:28.942Z,21.05
2018-08-11T20:35:57.654Z,21.02
2018-08-11T20:38:26.270Z,21.03
2018-08-11T20:40:54.972Z,21.07
2018-08-11T20:43:23.654Z,21.01
2018-08-11T20:45:52.327Z,21.00
2018-08-11T20:48:21.005Z,20.96
2018-08-11T20:50:49.633Z,20.94
2018-08-11T20:53:18.266Z,20.97
2018-08-11T20:55:46.886Z,20.67
2018-08-11T20:58:15.529Z,20.50
2018-08-11T21:00:44.263Z,20.42
2018-08-11T21:03:13.473Z,20.37
2018-08-11T21:05:42.132Z,20.38
2018-08-11T21:08:10.822Z,20.39
2018-08-11T21:10:39.473Z,20.38
2018-08-11T21:13:08.239Z,20.38
2018-08-11T21:15:36.910Z,20.35
2018-08-11T21:18:05.549Z,20.38
2018-08-11T21:20:34.203Z,20.41
2018-08-11T21:23:02.864Z,20.43
2018-08-11T21:25:31.508Z,20.38
2018-08-11T21:28:00.147Z,20.36
2018-08-11T21:30:28.916Z,20.28
2018-08-11T21:32:57.508Z,20.22
2018-08-11T21:35:26.107Z,20.14
2018-08-11T21:37:54.720Z,20.07
2018-08-11T21:40:23.326Z,20.13
2018-08-11T21:42:51.944Z,20.12
2018-08-11T21:45:20.574Z,20.02
2018-08-11T21:47:49.792Z,19.94
2018-08-11T21:50:18.393Z,19.87
2018-08-11T21:52:47.043Z,19.83
2018-08-11T21:55:15.726Z,19.76
2018-08-11T21:57:44.371Z,19.65
2018-08-11T22:00:34.610Z,19.62
2018-08-11T22:03:03.430Z,19.58
2018-08-11T22:05:32.187Z,19.62
2018-08-11T22:08:01.740Z,19.59
2018-08-11T22:10:30.668Z,19.62
2018-08-11T22:12:59.330Z,19.56
2018-08-11T22:15:28.027Z,19.44
2018-08-11T22:17:56.663Z,19.37
2018-08-11T22:20:25.322Z,19.34
2018-08-11T22:22:53.962Z,19.32
2018-08-11T22:25:22.625Z,19.32
2018-08-11T22:27:51.287Z,19.26
2018-08-11T22:30:19.954Z,19.05
2018-08-11T22:32:48.674Z,18.98
2018-08-11T22:35:17.346Z,18.99
2018-08-11T22:37:45.980Z,18.99
2018-08-11T22:40:14.680Z,18.89
2018-08-11T22:42:43.334Z,18.73
2018-08-11T22:45:12.563Z,18.62
2018-08-11T22:47:41.255Z,18.55
2018-08-11T22:50:11.835Z,18.55
2018-08-11T22:52:40.746Z,18.72
2018-08-11T22:55:09.614Z,18.75
2018-08-11T22:57:38.301Z,18.68
2018-08-11T23:00:15.661Z,18.65
2018-08-11T23:02:44.703Z,18.70
2018-08-11T23:05:13.474Z,18.99
2018-08-11T23:07:42.335Z,18.80
2018-08-11T23:10:12.822Z,18.58
2018-08-11T23:12:42.595Z,18.52
2018-08-11T23:15:13.067Z,18.52
2018-08-11T23:17:43.095Z,18.51
2018-08-11T23:20:11.751Z,18.50
2018-08-11T23:22:40.356Z,18.23
2018-08-11T23:25:09.714Z,18.18
2018-08-11T23:27:38.569Z,18.15
2018-08-11T23:30:09.849Z,18.08
2018-08-11T23:32:38.922Z,18.08
2018-08-11T23:35:07.646Z,18.04
2018-08-11T23:37:36.309Z,17.87
2018-08-11T23:40:05.890Z,17.80
2018-08-11T23:42:34.574Z,17.72
2018-08-11T23:45:03.212Z,17.79
2018-08-11T23:47:31.883Z,17.90
2018-08-11T23:50:00.512Z,17.87
2018-08-11T23:52:29.112Z,18.00
2018-08-11T23:54:57.816Z,18.08
2018-08-11T23:57:26.395Z,17.76
2018-08-11T23:59:55.103Z,17.56
